sensor_id;sensor_type;location;lat;lon;timestamp;pressure;altitude;pressure_sealevel;temperature
69590;BMP180;56792;50.644;17.984;2023-11-19T10:20:42;99103.20;;;2.00
69590;BMP180;56792;50.644;17.984;2023-11-19T10:23:13;99106.60;;;2.00
69590;BMP180;56792;50.644;17.984;2023-11-19T10:25:44;99102.40;;;2.00
69590;BMP180;56792;50.644;17.984;2023-11-19T10:28:17;99093.40;;;2.00
69590;BMP180;56792;50.644;17.984;2023-11-19T10:30:52;99100.80;;;2.02
69590;BMP180;56792;50.644;17.984;2023-11-19T10:33:32;99089.20;;;2.10
69590;BMP180;56792;50.644;17.984;2023-11-19T10:36:04;99086.20;;;2.04
69590;BMP180;56792;50.644;17.984;2023-11-19T10:38:35;99088.40;;;2.10
69590;BMP180;56792;50.644;17.984;2023-11-19T10:41:07;99077.40;;;2.00
69590;BMP180;56792;50.644;17.984;2023-11-19T10:43:47;99076.60;;;2.00
69590;BMP180;56792;50.644;17.984;2023-11-19T10:46:18;99074.40;;;2.00
69590;BMP180;56792;50.644;17.984;2023-11-19T10:48:52;99060.60;;;2.00
69590;BMP180;56792;50.644;17.984;2023-11-19T10:51:23;99049.00;;;2.10
69590;BMP180;56792;50.644;17.984;2023-11-19T10:54:00;99038.40;;;2.10
69590;BMP180;56792;50.644;17.984;2023-11-19T10:56:34;99034.80;;;2.10
69590;BMP180;56792;50.644;17.984;2023-11-19T10:59:06;99025.20;;;2.20
69590;BMP180;56792;50.644;17.984;2023-11-19T11:01:45;99019.40;;;2.30
69590;BMP180;56792;50.644;17.984;2023-11-19T11:04:25;99009.60;;;2.40
69590;BMP180;56792;50.644;17.984;2023-11-19T11:06:59;99014.80;;;2.56
69590;BMP180;56792;50.644;17.984;2023-11-19T11:09:33;99016.80;;;2.72
69590;BMP180;56792;50.644;17.984;2023-11-19T11:12:05;99023.60;;;2.88
69590;BMP180;56792;50.644;17.984;2023-11-19T11:14:41;99019.40;;;2.92
69590;BMP180;56792;50.644;17.984;2023-11-19T11:17:18;99013.60;;;3.00
69590;BMP180;56792;50.644;17.984;2023-11-19T11:19:51;99003.80;;;3.00
69590;BMP180;56792;50.644;17.984;2023-11-19T11:22:23;98997.20;;;3.00
69590;BMP180;56792;50.644;17.984;2023-11-19T11:25:33;98993.40;;;3.06
69590;BMP180;56792;50.644;17.984;2023-11-19T11:28:20;98997.20;;;3.10
69590;BMP180;56792;50.644;17.984;2023-11-19T11:31:15;98991.40;;;3.10
69590;BMP180;56792;50.644;17.984;2023-11-19T11:34:24;98979.40;;;3.10
69590;BMP180;56792;50.644;17.984;2023-11-19T11:37:14;98979.00;;;3.10
69590;BMP180;56792;50.644;17.984;2023-11-19T11:39:47;98980.00;;;3.20
69590;BMP180;56792;50.644;17.984;2023-11-19T11:42:38;98976.80;;;3.20
69590;BMP180;56792;50.644;17.984;2023-11-19T11:45:12;98979.20;;;3.20
69590;BMP180;56792;50.644;17.984;2023-11-19T11:48:14;98971.20;;;3.20
69590;BMP180;56792;50.644;17.984;2023-11-19T11:50:57;98967.80;;;3.16
69590;BMP180;56792;50.644;17.984;2023-11-19T11:53:31;98971.20;;;3.20
69590;BMP180;56792;50.644;17.984;2023-11-19T11:56:06;98968.40;;;3.12
69590;BMP180;56792;50.644;17.984;2023-11-19T11:58:38;98958.40;;;3.10
69590;BMP180;56792;50.644;17.984;2023-11-19T12:01:17;98958.60;;;3.10
69590;BMP180;56792;50.644;17.984;2023-11-19T12:03:55;98954.00;;;3.20
69590;BMP180;56792;50.644;17.984;2023-11-19T12:06:28;98945.60;;;3.12
69590;BMP180;56792;50.644;17.984;2023-11-19T12:09:03;98950.60;;;3.20
69590;BMP180;56792;50.644;17.984;2023-11-19T12:11:36;98943.00;;;3.10
69590;BMP180;56792;50.644;17.984;2023-11-19T12:14:07;98935.20;;;3.16
69590;BMP180;56792;50.644;17.984;2023-11-19T12:16:38;98938.40;;;3.20
69590;BMP180;56792;50.644;17.984;2023-11-19T12:19:09;98937.00;;;3.20
69590;BMP180;56792;50.644;17.984;2023-11-19T12:21:41;98929.20;;;3.30
69590;BMP180;56792;50.644;17.984;2023-11-19T12:24:13;98933.20;;;3.30
69590;BMP180;56792;50.644;17.984;2023-11-19T12:26:45;98922.20;;;3.30
69590;BMP180;56792;50.644;17.984;2023-11-19T12:29:17;98921.00;;;3.20
69590;BMP180;56792;50.644;17.984;2023-11-19T12:31:56;98917.40;;;3.20
69590;BMP180;56792;50.644;17.984;2023-11-19T12:34:32;98923.40;;;3.24
69590;BMP180;56792;50.644;17.984;2023-11-19T12:37:06;98926.80;;;3.26
69590;BMP180;56792;50.644;17.984;2023-11-19T12:39:38;98917.00;;;3.30
69590;BMP180;56792;50.644;17.984;2023-11-19T12:42:10;98919.40;;;3.30
69590;BMP180;56792;50.644;17.984;2023-11-19T12:44:55;98907.40;;;3.30
69590;BMP180;56792;50.644;17.984;2023-11-19T12:47:26;98905.20;;;3.30
69590;BMP180;56792;50.644;17.984;2023-11-19T12:50:04;98907.00;;;3.30
69590;BMP180;56792;50.644;17.984;2023-11-19T12:52:35;98910.40;;;3.30
69590;BMP180;56792;50.644;17.984;2023-11-19T12:55:26;98900.60;;;3.40
69590;BMP180;56792;50.644;17.984;2023-11-19T12:57:58;98903.20;;;3.40
69590;BMP180;56792;50.644;17.984;2023-11-19T13:00:29;98899.00;;;3.40
69590;BMP180;56792;50.644;17.984;2023-11-19T13:03:01;98891.00;;;3.50
69590;BMP180;56792;50.644;17.984;2023-11-19T13:05:34;98883.00;;;3.50
69590;BMP180;56792;50.644;17.984;2023-11-19T13:08:08;98890.20;;;3.60
69590;BMP180;56792;50.644;17.984;2023-11-19T13:10:55;98878.00;;;3.60
69590;BMP180;56792;50.644;17.984;2023-11-19T13:13:26;98873.40;;;3.60
69590;BMP180;56792;50.644;17.984;2023-11-19T13:16:05;98867.20;;;3.60
69590;BMP180;56792;50.644;17.984;2023-11-19T13:18:36;98873.60;;;3.60
69590;BMP180;56792;50.644;17.984;2023-11-19T13:21:08;98876.20;;;3.70
69590;BMP180;56792;50.644;17.984;2023-11-19T13:23:39;98872.20;;;3.70
69590;BMP180;56792;50.644;17.984;2023-11-19T13:26:10;98862.60;;;3.70
69590;BMP180;56792;50.644;17.984;2023-11-19T13:28:41;98862.60;;;3.70
69590;BMP180;56792;50.644;17.984;2023-11-19T13:31:12;98860.20;;;3.70
69590;BMP180;56792;50.644;17.984;2023-11-19T13:33:43;98863.80;;;3.78
69590;BMP180;56792;50.644;17.984;2023-11-19T13:36:15;98861.60;;;3.80
69590;BMP180;56792;50.644;17.984;2023-11-19T13:38:46;98857.80;;;3.84
69590;BMP180;56792;50.644;17.984;2023-11-19T13:41:17;98856.00;;;3.90
69590;BMP180;56792;50.644;17.984;2023-11-19T13:43:48;98853.60;;;3.90
69590;BMP180;56792;50.644;17.984;2023-11-19T13:46:19;98847.20;;;3.90
69590;BMP180;56792;50.644;17.984;2023-11-19T13:48:50;98848.80;;;3.92
69590;BMP180;56792;50.644;17.984;2023-11-19T13:51:21;98846.40;;;3.96
69590;BMP180;56792;50.644;17.984;2023-11-19T13:53:52;98842.00;;;3.92
69590;BMP180;56792;50.644;17.984;2023-11-19T13:56:23;98845.00;;;4.00
69590;BMP180;56792;50.644;17.984;2023-11-19T13:58:54;98837.00;;;4.00
69590;BMP180;56792;50.644;17.984;2023-11-19T14:01:27;98836.60;;;3.94
69590;BMP180;56792;50.644;17.984;2023-11-19T14:03:58;98835.40;;;4.00
69590;BMP180;56792;50.644;17.984;2023-11-19T14:06:29;98830.60;;;4.00
69590;BMP180;56792;50.644;17.984;2023-11-19T14:09:00;98835.40;;;4.10
69590;BMP180;56792;50.644;17.984;2023-11-19T14:11:31;98840.20;;;4.10
69590;BMP180;56792;50.644;17.984;2023-11-19T14:14:02;98840.80;;;4.10
69590;BMP180;56792;50.644;17.984;2023-11-19T14:16:33;98843.20;;;4.10
69590;BMP180;56792;50.644;17.984;2023-11-19T14:19:04;98843.20;;;4.10
69590;BMP180;56792;50.644;17.984;2023-11-19T14:21:35;98836.40;;;4.10
69590;BMP180;56792;50.644;17.984;2023-11-19T14:24:09;98829.20;;;4.10
69590;BMP180;56792;50.644;17.984;2023-11-19T14:26:39;98832.60;;;4.10
69590;BMP180;56792;50.644;17.984;2023-11-19T14:29:10;98830.60;;;4.10
69590;BMP180;56792;50.644;17.984;2023-11-19T14:31:41;98838.80;;;4.14
69590;BMP180;56792;50.644;17.984;2023-11-19T14:34:12;98833.80;;;4.20
69590;BMP180;56792;50.644;17.984;2023-11-19T14:36:43;98832.40;;;4.20
69590;BMP180;56792;50.644;17.984;2023-11-19T14:39:14;98831.60;;;4.18
69590;BMP180;56792;50.644;17.984;2023-11-19T14:41:46;98830.40;;;4.20
69590;BMP180;56792;50.644;17.984;2023-11-19T14:44:17;98830.60;;;4.16
69590;BMP180;56792;50.644;17.984;2023-11-19T14:46:49;98828.20;;;4.10
69590;BMP180;56792;50.644;17.984;2023-11-19T14:49:20;98837.20;;;4.10
69590;BMP180;56792;50.644;17.984;2023-11-19T14:51:51;98839.20;;;4.10
69590;BMP180;56792;50.644;17.984;2023-11-19T14:54:22;98842.80;;;4.10
69590;BMP180;56792;50.644;17.984;2023-11-19T14:56:54;98846.20;;;4.10
69590;BMP180;56792;50.644;17.984;2023-11-19T14:59:25;98857.40;;;4.10
69590;BMP180;56792;50.644;17.984;2023-11-19T15:01:56;98855.60;;;4.10
69590;BMP180;56792;50.644;17.984;2023-11-19T15:04:27;98855.60;;;4.10
69590;BMP180;56792;50.644;17.984;2023-11-19T15:07:00;98856.60;;;4.16
69590;BMP180;56792;50.644;17.984;2023-11-19T15:09:32;98853.20;;;4.20
69590;BMP180;56792;50.644;17.984;2023-11-19T15:12:07;98855.40;;;4.20
69590;BMP180;56792;50.644;17.984;2023-11-19T15:14:38;98851.80;;;4.20
69590;BMP180;56792;50.644;17.984;2023-11-19T15:17:10;98845.20;;;4.28
69590;BMP180;56792;50.644;17.984;2023-11-19T15:19:41;98843.60;;;4.30
69590;BMP180;56792;50.644;17.984;2023-11-19T15:22:12;98832.80;;;4.30
69590;BMP180;56792;50.644;17.984;2023-11-19T15:24:43;98832.60;;;4.30
69590;BMP180;56792;50.644;17.984;2023-11-19T15:27:14;98833.00;;;4.30
69590;BMP180;56792;50.644;17.984;2023-11-19T15:29:45;98833.00;;;4.30
69590;BMP180;56792;50.644;17.984;2023-11-19T15:32:16;98829.40;;;4.30
69590;BMP180;56792;50.644;17.984;2023-11-19T15:34:47;98831.40;;;4.30
69590;BMP180;56792;50.644;17.984;2023-11-19T15:37:18;98835.20;;;4.30
69590;BMP180;56792;50.644;17.984;2023-11-19T15:39:49;98835.40;;;4.28
69590;BMP180;56792;50.644;17.984;2023-11-19T15:42:21;98839.40;;;4.26
69590;BMP180;56792;50.644;17.984;2023-11-19T15:44:52;98840.60;;;4.24
69590;BMP180;56792;50.644;17.984;2023-11-19T15:47:23;98842.00;;;4.20
69590;BMP180;56792;50.644;17.984;2023-11-19T15:49:54;98838.20;;;4.20
69590;BMP180;56792;50.644;17.984;2023-11-19T15:52:25;98837.00;;;4.20
69590;BMP180;56792;50.644;17.984;2023-11-19T15:54:56;98838.20;;;4.24
69590;BMP180;56792;50.644;17.984;2023-11-19T15:57:27;98834.00;;;4.30
69590;BMP180;56792;50.644;17.984;2023-11-19T15:59:58;98844.20;;;4.30
69590;BMP180;56792;50.644;17.984;2023-11-19T16:02:29;98846.80;;;4.30
69590;BMP180;56792;50.644;17.984;2023-11-19T16:05:00;98846.20;;;4.40
69590;BMP180;56792;50.644;17.984;2023-11-19T16:07:31;98844.00;;;4.40
69590;BMP180;56792;50.644;17.984;2023-11-19T16:10:02;98837.40;;;4.48
69590;BMP180;56792;50.644;17.984;2023-11-19T16:12:34;98842.80;;;4.50
69590;BMP180;56792;50.644;17.984;2023-11-19T16:15:06;98840.60;;;4.56
69590;BMP180;56792;50.644;17.984;2023-11-19T16:17:38;98845.80;;;4.60
69590;BMP180;56792;50.644;17.984;2023-11-19T16:20:11;98848.20;;;4.60
69590;BMP180;56792;50.644;17.984;2023-11-19T16:22:43;98847.60;;;4.62
69590;BMP180;56792;50.644;17.984;2023-11-19T16:25:14;98840.60;;;4.70
69590;BMP180;56792;50.644;17.984;2023-11-19T16:27:45;98846.80;;;4.70
69590;BMP180;56792;50.644;17.984;2023-11-19T16:30:16;98852.40;;;4.70
69590;BMP180;56792;50.644;17.984;2023-11-19T16:32:58;98854.60;;;4.78
69590;BMP180;56792;50.644;17.984;2023-11-19T16:35:29;98857.40;;;4.80
69590;BMP180;56792;50.644;17.984;2023-11-19T16:38:00;98861.60;;;4.80
69590;BMP180;56792;50.644;17.984;2023-11-19T16:40:31;98856.20;;;4.80
69590;BMP180;56792;50.644;17.984;2023-11-19T16:43:08;98857.80;;;4.80
69590;BMP180;56792;50.644;17.984;2023-11-19T16:45:39;98858.20;;;4.80
69590;BMP180;56792;50.644;17.984;2023-11-19T16:48:10;98859.60;;;4.80
69590;BMP180;56792;50.644;17.984;2023-11-19T16:50:41;98859.80;;;4.86
69590;BMP180;56792;50.644;17.984;2023-11-19T16:53:12;98865.60;;;4.90
69590;BMP180;56792;50.644;17.984;2023-11-19T16:55:43;98863.00;;;4.90
69590;BMP180;56792;50.644;17.984;2023-11-19T16:58:14;98856.00;;;4.90
69590;BMP180;56792;50.644;17.984;2023-11-19T17:00:45;98855.20;;;4.90
69590;BMP180;56792;50.644;17.984;2023-11-19T17:03:16;98865.60;;;4.90
69590;BMP180;56792;50.644;17.984;2023-11-19T17:05:47;98870.00;;;4.90
69590;BMP180;56792;50.644;17.984;2023-11-19T17:08:20;98870.60;;;4.90
69590;BMP180;56792;50.644;17.984;2023-11-19T17:10:51;98863.40;;;4.90
69590;BMP180;56792;50.644;17.984;2023-11-19T17:13:22;98858.00;;;4.90
69590;BMP180;56792;50.644;17.984;2023-11-19T17:15:53;98863.20;;;4.90
69590;BMP180;56792;50.644;17.984;2023-11-19T17:18:24;98857.20;;;4.90
69590;BMP180;56792;50.644;17.984;2023-11-19T17:20:55;98860.60;;;4.90
69590;BMP180;56792;50.644;17.984;2023-11-19T17:23:28;98855.80;;;4.94
69590;BMP180;56792;50.644;17.984;2023-11-19T17:25:59;98854.20;;;5.00
69590;BMP180;56792;50.644;17.984;2023-11-19T17:28:29;98862.40;;;5.00
69590;BMP180;56792;50.644;17.984;2023-11-19T17:31:02;98868.00;;;5.00
69590;BMP180;56792;50.644;17.984;2023-11-19T17:33:33;98864.40;;;5.00
69590;BMP180;56792;50.644;17.984;2023-11-19T17:36:05;98867.00;;;4.98
69590;BMP180;56792;50.644;17.984;2023-11-19T17:38:37;98868.40;;;4.92
69590;BMP180;56792;50.644;17.984;2023-11-19T17:41:08;98861.00;;;4.90
69590;BMP180;56792;50.644;17.984;2023-11-19T17:43:39;98863.00;;;4.90
69590;BMP180;56792;50.644;17.984;2023-11-19T17:46:10;98862.20;;;4.98
69590;BMP180;56792;50.644;17.984;2023-11-19T17:48:43;98857.80;;;5.00
69590;BMP180;56792;50.644;17.984;2023-11-19T17:51:14;98853.00;;;5.00
69590;BMP180;56792;50.644;17.984;2023-11-19T17:53:46;98858.00;;;5.20
69590;BMP180;56792;50.644;17.984;2023-11-19T17:56:18;98853.20;;;5.50
69590;BMP180;56792;50.644;17.984;2023-11-19T17:58:49;98853.60;;;5.70
69590;BMP180;56792;50.644;17.984;2023-11-19T18:01:22;98845.00;;;5.90
69590;BMP180;56792;50.644;17.984;2023-11-19T18:03:53;98849.60;;;6.00
69590;BMP180;56792;50.644;17.984;2023-11-19T18:06:24;98850.20;;;6.12
69590;BMP180;56792;50.644;17.984;2023-11-19T18:08:55;98846.80;;;6.20
69590;BMP180;56792;50.644;17.984;2023-11-19T18:11:26;98840.20;;;6.30
69590;BMP180;56792;50.644;17.984;2023-11-19T18:13:57;98835.00;;;6.38
69590;BMP180;56792;50.644;17.984;2023-11-19T18:16:29;98836.60;;;6.40
69590;BMP180;56792;50.644;17.984;2023-11-19T18:19:01;98837.40;;;6.40
69590;BMP180;56792;50.644;17.984;2023-11-19T18:21:34;98843.80;;;6.50
69590;BMP180;56792;50.644;17.984;2023-11-19T18:24:07;98845.40;;;6.50
69590;BMP180;56792;50.644;17.984;2023-11-19T18:26:39;98851.80;;;6.50
69590;BMP180;56792;50.644;17.984;2023-11-19T18:29:10;98858.00;;;6.50
69590;BMP180;56792;50.644;17.984;2023-11-19T18:31:41;98864.60;;;6.60
69590;BMP180;56792;50.644;17.984;2023-11-19T18:34:12;98860.60;;;6.60
69590;BMP180;56792;50.644;17.984;2023-11-19T18:36:44;98863.20;;;6.70
69590;BMP180;56792;50.644;17.984;2023-11-19T18:39:15;98853.80;;;6.70
69590;BMP180;56792;50.644;17.984;2023-11-19T18:41:46;98848.20;;;6.70
69590;BMP180;56792;50.644;17.984;2023-11-19T18:44:17;98842.60;;;6.70
69590;BMP180;56792;50.644;17.984;2023-11-19T18:46:48;98840.20;;;6.70
69590;BMP180;56792;50.644;17.984;2023-11-19T18:49:19;98835.40;;;6.70
69590;BMP180;56792;50.644;17.984;2023-11-19T18:51:50;98840.00;;;6.62
69590;BMP180;56792;50.644;17.984;2023-11-19T18:54:21;98842.60;;;6.48
69590;BMP180;56792;50.644;17.984;2023-11-19T18:56:52;98844.80;;;6.20
69590;BMP180;56792;50.644;17.984;2023-11-19T18:59:26;98848.00;;;6.10
69590;BMP180;56792;50.644;17.984;2023-11-19T19:01:57;98848.00;;;6.00
69590;BMP180;56792;50.644;17.984;2023-11-19T19:04:28;98844.60;;;5.90
69590;BMP180;56792;50.644;17.984;2023-11-19T19:06:59;98841.40;;;5.80
69590;BMP180;56792;50.644;17.984;2023-11-19T19:09:33;98848.60;;;5.80
69590;BMP180;56792;50.644;17.984;2023-11-19T19:12:04;98845.40;;;5.70
69590;BMP180;56792;50.644;17.984;2023-11-19T19:14:36;98845.80;;;5.70
69590;BMP180;56792;50.644;17.984;2023-11-19T19:17:07;98846.80;;;5.60
69590;BMP180;56792;50.644;17.984;2023-11-19T19:19:40;98844.00;;;5.60
69590;BMP180;56792;50.644;17.984;2023-11-19T19:22:11;98846.80;;;5.50
69590;BMP180;56792;50.644;17.984;2023-11-19T19:24:42;98842.60;;;5.50
69590;BMP180;56792;50.644;17.984;2023-11-19T19:27:13;98841.20;;;5.40
69590;BMP180;56792;50.644;17.984;2023-11-19T19:29:44;98843.60;;;5.40
69590;BMP180;56792;50.644;17.984;2023-11-19T19:32:15;98847.00;;;5.30
69590;BMP180;56792;50.644;17.984;2023-11-19T19:34:46;98844.40;;;5.30
69590;BMP180;56792;50.644;17.984;2023-11-19T19:37:17;98849.20;;;5.20
69590;BMP180;56792;50.644;17.984;2023-11-19T22:03:56;98872.20;;;5.20
69590;BMP180;56792;50.644;17.984;2023-11-19T22:06:27;98865.80;;;5.20
69590;BMP180;56792;50.644;17.984;2023-11-19T22:08:58;98873.00;;;5.22
69590;BMP180;56792;50.644;17.984;2023-11-19T22:11:30;98876.60;;;5.26
69590;BMP180;56792;50.644;17.984;2023-11-19T22:14:02;98876.40;;;5.28
69590;BMP180;56792;50.644;17.984;2023-11-19T22:16:33;98876.40;;;5.28
69590;BMP180;56792;50.644;17.984;2023-11-19T22:19:04;98880.00;;;5.30
69590;BMP180;56792;50.644;17.984;2023-11-19T22:21:35;98873.80;;;5.30
69590;BMP180;56792;50.644;17.984;2023-11-19T22:24:07;98870.60;;;5.30
69590;BMP180;56792;50.644;17.984;2023-11-19T22:26:39;98863.60;;;5.40
69590;BMP180;56792;50.644;17.984;2023-11-19T22:29:10;98866.00;;;5.40
69590;BMP180;56792;50.644;17.984;2023-11-19T22:31:40;98867.60;;;5.40
69590;BMP180;56792;50.644;17.984;2023-11-19T22:34:11;98869.20;;;5.50
69590;BMP180;56792;50.644;17.984;2023-11-19T22:36:42;98867.80;;;5.50
69590;BMP180;56792;50.644;17.984;2023-11-19T22:39:15;98867.20;;;5.52
69590;BMP180;56792;50.644;17.984;2023-11-19T22:41:47;98871.40;;;5.60
69590;BMP180;56792;50.644;17.984;2023-11-19T22:44:18;98872.80;;;5.60
69590;BMP180;56792;50.644;17.984;2023-11-19T22:46:51;98869.40;;;5.70
69590;BMP180;56792;50.644;17.984;2023-11-19T22:49:23;98864.20;;;5.70
69590;BMP180;56792;50.644;17.984;2023-11-19T22:51:54;98864.00;;;5.78
69590;BMP180;56792;50.644;17.984;2023-11-19T22:54:25;98865.20;;;5.80
69590;BMP180;56792;50.644;17.984;2023-11-19T22:56:55;98865.00;;;5.80
69590;BMP180;56792;50.644;17.984;2023-11-19T22:59:26;98863.00;;;5.90
69590;BMP180;56792;50.644;17.984;2023-11-19T23:01:57;98864.40;;;5.92
69590;BMP180;56792;50.644;17.984;2023-11-19T23:04:28;98861.20;;;6.00
69590;BMP180;56792;50.644;17.984;2023-11-19T23:06:59;98863.00;;;6.02
69590;BMP180;56792;50.644;17.984;2023-11-19T23:09:31;98864.80;;;6.18
69590;BMP180;56792;50.644;17.984;2023-11-19T23:12:02;98857.00;;;6.30
69590;BMP180;56792;50.644;17.984;2023-11-19T23:14:34;98851.00;;;6.36
69590;BMP180;56792;50.644;17.984;2023-11-19T23:17:06;98851.40;;;6.40
69590;BMP180;56792;50.644;17.984;2023-11-19T23:19:37;98857.00;;;6.40
69590;BMP180;56792;50.644;17.984;2023-11-19T23:22:08;98860.80;;;6.40
69590;BMP180;56792;50.644;17.984;2023-11-19T23:24:39;98857.60;;;6.40
69590;BMP180;56792;50.644;17.984;2023-11-19T23:27:10;98858.80;;;6.46
69590;BMP180;56792;50.644;17.984;2023-11-19T23:29:45;98861.20;;;6.50
69590;BMP180;56792;50.644;17.984;2023-11-19T23:32:16;98866.00;;;6.50
69590;BMP180;56792;50.644;17.984;2023-11-19T23:34:48;98863.00;;;6.50
69590;BMP180;56792;50.644;17.984;2023-11-19T23:37:19;98869.80;;;6.58
69590;BMP180;56792;50.644;17.984;2023-11-19T23:39:50;98865.20;;;6.60
69590;BMP180;56792;50.644;17.984;2023-11-19T23:42:22;98865.60;;;6.60
69590;BMP180;56792;50.644;17.984;2023-11-19T23:44:53;98857.40;;;6.60
69590;BMP180;56792;50.644;17.984;2023-11-19T23:47:23;98857.40;;;6.64
69590;BMP180;56792;50.644;17.984;2023-11-19T23:49:55;98861.60;;;6.70
69590;BMP180;56792;50.644;17.984;2023-11-19T23:52:26;98861.20;;;6.70
69590;BMP180;56792;50.644;17.984;2023-11-19T23:54:56;98861.00;;;6.80
69590;BMP180;56792;50.644;17.984;2023-11-19T23:57:28;98862.40;;;6.86
69590;BMP180;56792;50.644;17.984;2023-11-19T23:59:59;98863.80;;;6.90
